createdAt,value
2018-06-11T00:05:02.688Z,16.80
2018-06-11T00:11:08.349Z,16.70
2018-06-11T00:17:14.295Z,16.70
2018-06-11T00:23:20.121Z,16.60
2018-06-11T00:29:25.727Z,16.50
2018-06-11T00:35:31.449Z,16.50
2018-06-11T00:41:37.063Z,16.40
2018-06-11T00:47:42.848Z,16.30
2018-06-11T00:53:48.551Z,16.30
2018-06-11T00:59:54.231Z,16.20
2018-06-11T01:06:00.068Z,16.10
2018-06-11T01:12:05.885Z,16.00
2018-06-11T01:18:11.525Z,15.90
2018-06-11T01:24:17.310Z,15.80
2018-06-11T01:30:23.121Z,15.80
2018-06-11T01:36:28.820Z,15.80
2018-06-11T01:42:34.485Z,16.00
2018-06-11T01:48:40.304Z,16.00
2018-06-11T01:54:45.943Z,16.00
2018-06-11T02:00:52.451Z,16.00
2018-06-11T02:06:58.349Z,16.00
2018-06-11T02:13:04.417Z,16.10
2018-06-11T02:19:10.108Z,16.20
2018-06-11T02:25:15.912Z,16.20
2018-06-11T02:31:22.231Z,16.20
2018-06-11T02:37:28.225Z,16.20
2018-06-11T02:43:33.908Z,16.10
2018-06-11T02:49:39.616Z,16.10
2018-06-11T02:55:45.368Z,16.20
2018-06-11T03:01:51.061Z,16.20
2018-06-11T03:07:57.104Z,16.20
2018-06-11T03:14:02.826Z,16.20
2018-06-11T03:20:08.557Z,16.20
2018-06-11T03:26:14.198Z,16.20
2018-06-11T03:32:20.008Z,16.20
2018-06-11T03:38:25.853Z,16.10
2018-06-11T03:44:31.457Z,16.10
2018-06-11T03:50:37.098Z,16.00
2018-06-11T03:56:42.802Z,16.00
2018-06-11T04:02:48.516Z,16.00
2018-06-11T04:08:54.212Z,16.00
2018-06-11T04:14:59.966Z,16.00
2018-06-11T04:21:05.634Z,16.00
2018-06-11T04:27:11.265Z,16.10
2018-06-11T04:33:16.921Z,16.10
2018-06-11T04:39:23.021Z,16.20
2018-06-11T04:45:28.996Z,16.30
2018-06-11T04:51:34.665Z,16.20
2018-06-11T04:57:40.303Z,16.30
2018-06-11T05:03:45.969Z,16.40
2018-06-11T05:09:51.919Z,16.40
2018-06-11T05:15:57.661Z,16.40
2018-06-11T05:22:03.329Z,16.60
2018-06-11T05:28:08.993Z,16.70
2018-06-11T05:34:14.844Z,16.80
2018-06-11T05:40:21.058Z,16.80
2018-06-11T05:46:26.646Z,16.80
2018-06-11T05:52:32.260Z,16.70
2018-06-11T05:58:37.957Z,16.80
2018-06-11T06:04:43.664Z,16.90
2018-06-11T06:10:49.376Z,17.00
2018-06-11T06:16:55.408Z,17.00
2018-06-11T06:23:01.180Z,17.00
2018-06-11T06:29:06.936Z,16.90
2018-06-11T06:35:12.687Z,16.90
2018-06-11T06:41:18.327Z,16.70
2018-06-11T06:47:24.819Z,16.60
2018-06-11T06:53:30.538Z,16.80
2018-06-11T06:59:36.228Z,17.10
2018-06-11T07:05:41.906Z,17.50
2018-06-11T07:11:47.562Z,17.80
2018-06-11T07:17:53.809Z,17.80
2018-06-11T07:23:59.465Z,17.80
2018-06-11T07:30:05.688Z,18.30
2018-06-11T07:36:11.802Z,18.50
2018-06-11T07:42:17.407Z,18.60
2018-06-11T07:48:24.060Z,18.30
2018-06-11T07:54:29.668Z,18.30
2018-06-11T08:00:35.451Z,18.50
2018-06-11T08:06:41.093Z,18.50
2018-06-11T08:12:46.750Z,18.70
2018-06-11T08:18:52.573Z,18.60
2018-06-11T08:24:58.369Z,18.50
2018-06-11T08:31:04.064Z,18.50
2018-06-11T08:37:09.786Z,18.70
2018-06-11T08:43:15.411Z,18.90
2018-06-11T08:49:21.247Z,19.20
2018-06-11T08:55:27.006Z,19.60
2018-06-11T09:01:33.088Z,20.00
2018-06-11T09:07:38.830Z,20.30
2018-06-11T09:13:44.548Z,20.20
2018-06-11T09:19:51.319Z,20.00
2018-06-11T09:25:57.252Z,20.00
2018-06-11T09:32:02.869Z,20.40
2018-06-11T09:38:08.710Z,20.90
2018-06-11T09:44:14.438Z,20.90
2018-06-11T09:50:20.109Z,20.80
2018-06-11T09:56:25.932Z,21.50
2018-06-11T10:02:31.609Z,22.20
2018-06-11T10:08:37.295Z,22.60
2018-06-11T10:14:43.040Z,23.20
2018-06-11T10:20:49.454Z,23.10
2018-06-11T10:26:55.420Z,23.90
2018-06-11T10:33:01.043Z,23.50
2018-06-11T10:39:09.475Z,23.70
2018-06-11T10:45:15.251Z,23.30
2018-06-11T10:51:21.024Z,23.40
2018-06-11T10:57:26.979Z,23.40
2018-06-11T11:03:32.678Z,23.70
2018-06-11T11:09:38.344Z,23.80
2018-06-11T11:15:44.084Z,24.30
2018-06-11T11:21:49.762Z,24.30
2018-06-11T11:27:55.524Z,25.00
2018-06-11T11:34:01.110Z,25.40
2018-06-11T11:40:06.941Z,25.70
2018-06-11T11:46:12.624Z,25.70
2018-06-11T11:52:18.553Z,25.70
2018-06-11T11:58:24.709Z,26.20
2018-06-11T12:04:30.384Z,26.30
2018-06-11T12:10:36.165Z,26.40
2018-06-11T12:16:41.820Z,27.20
2018-06-11T12:22:47.875Z,27.80
2018-06-11T12:28:53.688Z,26.90
2018-06-11T12:34:59.385Z,26.70
2018-06-11T12:41:05.019Z,27.10
2018-06-11T12:47:10.641Z,27.80
2018-06-11T12:53:16.335Z,27.60
2018-06-11T12:59:22.125Z,28.40
2018-06-11T13:05:28.124Z,28.90
2018-06-11T13:11:33.839Z,28.60
2018-06-11T13:17:39.466Z,28.10
2018-06-11T13:23:45.099Z,28.20
2018-06-11T13:29:51.318Z,28.30
2018-06-11T13:35:57.072Z,28.50
2018-06-11T13:42:02.696Z,29.00
2018-06-11T13:48:08.380Z,29.70
2018-06-11T13:54:14.172Z,29.90
2018-06-11T14:00:21.006Z,30.40
2018-06-11T14:06:26.877Z,30.20
2018-06-11T14:12:32.538Z,28.80
2018-06-11T14:18:38.234Z,28.20
2018-06-11T14:24:44.323Z,28.30
2018-06-11T14:30:50.174Z,27.60
2018-06-11T14:36:56.074Z,27.50
2018-06-11T14:43:01.879Z,27.70
2018-06-11T14:49:07.608Z,26.50
2018-06-11T14:55:13.396Z,25.90
2018-06-11T15:01:19.262Z,25.80
2018-06-11T15:07:24.951Z,25.50
2018-06-11T15:13:30.605Z,25.30
2018-06-11T15:19:36.286Z,25.00
2018-06-11T15:25:42.342Z,25.20
2018-06-11T15:31:47.963Z,25.00
2018-06-11T15:38:24.399Z,24.80
2018-06-11T15:44:30.307Z,24.50
2018-06-11T15:50:35.921Z,24.20
2018-06-11T15:56:41.604Z,24.00
2018-06-11T16:02:47.334Z,23.90
2018-06-11T16:08:53.031Z,23.60
2018-06-11T16:14:58.799Z,23.60
2018-06-11T16:21:04.441Z,23.30
2018-06-11T16:27:10.125Z,23.30
2018-06-11T16:33:15.779Z,23.20
2018-06-11T16:39:21.551Z,23.00
2018-06-11T16:45:27.236Z,22.90
2018-06-11T16:51:32.970Z,22.70
2018-06-11T16:57:38.641Z,22.80
2018-06-11T17:03:44.248Z,22.50
2018-06-11T17:09:50.067Z,22.40
2018-06-11T17:15:55.805Z,22.40
2018-06-11T17:22:01.472Z,22.30
2018-06-11T17:28:07.333Z,22.30
2018-06-11T17:34:12.984Z,22.30
2018-06-11T17:40:18.684Z,22.30
2018-06-11T17:46:24.575Z,22.30
2018-06-11T17:52:30.433Z,22.00
2018-06-11T17:58:36.147Z,22.00
2018-06-11T18:04:41.825Z,21.80
2018-06-11T18:10:47.365Z,21.70
2018-06-11T18:16:53.700Z,21.70
2018-06-11T18:22:59.352Z,21.60
2018-06-11T18:29:05.275Z,21.60
2018-06-11T18:35:10.936Z,21.50
2018-06-11T18:41:16.553Z,21.40
2018-06-11T18:47:22.872Z,21.40
2018-06-11T18:53:28.514Z,21.10
2018-06-11T18:59:34.212Z,20.90
2018-06-11T19:05:39.959Z,20.60
2018-06-11T19:11:45.722Z,20.50
2018-06-11T19:17:51.678Z,20.30
2018-06-11T19:23:57.453Z,20.20
2018-06-11T19:30:03.168Z,20.10
2018-06-11T19:36:08.813Z,19.80
2018-06-11T19:42:14.570Z,19.60
2018-06-11T19:48:20.177Z,19.60
2018-06-11T19:54:25.908Z,19.60
2018-06-11T20:00:31.566Z,19.50
2018-06-11T20:06:37.297Z,19.30
2018-06-11T20:12:43.010Z,19.10
2018-06-11T20:18:48.696Z,19.10
2018-06-11T20:24:54.468Z,19.00
2018-06-11T20:31:00.660Z,18.80
2018-06-11T20:37:06.337Z,18.70
2018-06-11T20:43:12.024Z,18.50
2018-06-11T20:49:17.676Z,18.40
2018-06-11T20:55:23.556Z,18.30
2018-06-11T21:01:29.272Z,18.20
2018-06-11T21:07:34.950Z,18.10
2018-06-11T21:13:40.700Z,18.10
2018-06-11T21:19:46.315Z,18.10
2018-06-11T21:25:52.650Z,18.10
2018-06-11T21:31:58.421Z,18.10
2018-06-11T21:38:04.420Z,18.00
2018-06-11T21:44:10.127Z,18.00
2018-06-11T21:50:15.796Z,18.00
2018-06-11T21:56:21.908Z,18.00
2018-06-11T22:02:27.663Z,17.90
2018-06-11T22:08:33.307Z,17.80
2018-06-11T22:14:39.055Z,17.60
2018-06-11T22:20:44.724Z,17.50
2018-06-11T22:26:50.679Z,17.40
2018-06-11T22:32:56.385Z,17.40
2018-06-11T22:39:02.171Z,17.30
2018-06-11T22:45:08.044Z,17.20
2018-06-11T22:51:13.664Z,17.10
2018-06-11T22:57:19.760Z,17.10
2018-06-11T23:09:30.881Z,16.70
2018-06-11T23:15:36.628Z,16.50
2018-06-11T23:21:42.286Z,16.40
2018-06-11T23:27:47.885Z,16.40
2018-06-11T23:33:54.476Z,16.50
2018-06-11T23:40:00.227Z,16.40
2018-06-11T23:52:50.744Z,16.30
2018-06-11T23:58:57.388Z,16.30
